Relevés horaires Beauvechain (Belgique)


Relevés horaires à Beauvechain - Dimanche 24 Déc. 2017
Heure UTC1 Température [°C] Vent [km/h] Hum. [%] Pres.4 [hPa] Visi. [Km] Nébu. [octa] Préc.5 [mm] Cond.
2m. Res. Ros. Dir.2 Vit. Moy. Raf.3
23:00 7.6 5.6 5.8 SSO 11.1 -- 20.4 88 1023.5(-0.6/3h) 20 -- -- --
22:00 7.5 5.4 5.9 SO 11.1 -- 18.5 90 1023.6(-0.9/3h) 17 -- -- --
21:00 7.9 5.9 5.9 SO 11.1 -- 20.4 87 1024(-0.8/3h) 20 -- -- --
20:00 8.1 6.2 6.6 SO 11.1 -- 16.7 90 1024(-1.1/3h) 20 -- -- --
19:00 8.1 6.2 6.8 SO 11.1 -- 16.7 91 1024.5(-1.0/3h) 14 -- -- --
18:00 8.0 6.4 6.8 SO 9.3 -- 22.2 92 1024.9(-1.0/3h) 9 -- -- --
17:00 8.1 6.2 6.3 SO 11.1 -- 18.5 88 1025.2(-1.0/3h) 18 -- -- --
16:00 8.1 6.2 5.9 SO 11.1 -- 22.2 86 1025.5(-1.2/3h) 20 -- -- --
15:00 8.3 6.7 6.4 OSO 9.3 -- 20.4 88 1025.9(-1.2/3h) 20 -- -- --
14:00 8.3 7.1 6.8 SO 7.4 -- 18.5 90 1026.2(-1.4/3h) 17 -- -- --
13:00 8.3 6.4 6.8 SO 11.1 -- 20.4 90 1026.7(-1.4/3h) 14 -- -- --
12:00 8.5 6.3 6.9 OSO 13.0 -- 20.4 90 1027.2(-1.2/3h) 15 -- -- --
11:00 8.5 6.6 7.0 SO 11.1 -- 20.4 90 1027.7(-0.6/3h) 20 -- -- --
10:00 8.3 6.4 7.2 SO 11.1 -- 18.5 93 1028.2(-0.2/3h) 14 -- -- --
09:00 8.1 6.2 6.9 SO 11.1 -- 20.4 92 1028.4(-0.3/3h) 12 -- -- --
08:00 7.9 5.9 6.7 SO 11.1 -- 20.4 92 1028.5(-0.4/3h) 18 -- -- --
07:00 7.9 5.6 6.6 SO 13.0 -- 18.5 91 1028.5(-0.9/3h) 14 -- -- --
06:00 7.8 5.8 6.5 SO 11.1 -- 22.2 91 1028.7(-1.2/3h) 15 -- -- --
05:00 8.1 5.9 6.7 SO 13.0 -- 20.4 91 1029(-1.3/3h) 16 -- -- --
04:00 8.3 6.1 6.6 SO 13.0 -- 20.4 89 1029.5(-1.2/3h) 20 -- -- --
03:00 8.6 6.8 6.8 OSO 11.1 -- 22.2 88 1030(-1.3/3h) 20 -- -- --
03:00 8.6 6.8 6.8 OSO 11.1 -- 22.2 88 1030(-1.3/3h) 20 -- -- --
02:00 8.6 6.5 6.9 OSO 13.0 -- 20.4 89 1030.2(-1.0/3h) 20 -- -- --
01:00 8.5 6.3 7.1 OSO 13.0 -- 22.2 91 1030.7(-0.8/3h) 18 -- -- --

1 Coordinated Universal Time. Actuellement il est 12:00 locale et 11:00 UTC.

2 Le vent souffle depuis la direction indiquée vers la direction oposée.

3 Les rafales max. sont disponible 40 min après l'heure du relevé.

4 Pour les stations d'altitude (plus de 600m) le géopotentiel du niveau le plus proche de la pression obligatoire est indiqué.

5 Les stations disposant d'un diffuseur peuvent indiquer "trace". Cela signifie que des précipitations ont touchés le sol mais que la quantité est inférieure à 0.1 mm.

Récapitulatif de la journée
Température [°C] Vent [km/h] Ensoleillement4 [h] Precipitations totale5 [mm] Pression [Hpa]
Min1 Max.2 Moy.3 Max. Min Max.
7.8 8.6 0 22.2 0 h 0 min 0 1023.5 1030.7

1 Température minimale relevée entre 18:00 UTC la veille et 18:00 UTC le jour donné.

2 Température maximale relevée entre 06:00 UTC le jour donné et 06:00 UTC le lendemain.

3 Vent moyen de la journée basé sur les relevés horaires.

4 Ensoleillement en heures relevé entre 06:00 UTC la veille et 06:00 UTC le jour donné.

5 Précipitations totales tombées entre 06:00 UTC la jour donné et 06:00 UTC le lendemain.

Graphiques horaires